Time;durP1;ratioP1;P1;durP2;ratioP2;P2;SDS_P1;SDS_P2;PMS_P1;PMS_P2;Temp;Humidity;BMP_temperature;BMP_pressure;BME280_temperature;BME280_humidity;BME280_pressure;Samples;Min_cycle;Max_cycle;Signal;HPM_P1;HPM_P2
2021/12/02 10:24:50;;;;;;;12.90;9.57;;;19.40;99.90;;;;;;700932;27;20942;-51
2021/12/02 10:25:11;;;;;;;10.80;9.70;;;21.00;83.80;;;;;;701598;28;1735;-54
2021/12/02 10:25:33;;;;;;;12.23;11.05;;;21.30;71.60;;;;;;701843;28;1157;-53
2021/12/02 10:25:58;;;;;;;12.23;11.05;;;22.00;66.70;;;;;;701793;28;1028;-53
2021/12/02 10:26:19;;;;;;;11.00;9.82;;;22.60;63.00;;;;;;700354;28;42980;-51
2021/12/02 10:26:42;;;;;;;11.73;10.57;;;23.50;60.80;;;;;;701541;28;1035;-52
2021/12/02 10:27:06;;;;;;;15.00;11.55;;;24.10;57.90;;;;;;701771;28;1286;-53
2021/12/02 10:27:27;;;;;;;12.57;11.27;;;24.50;56.30;;;;;;701128;28;16359;-55
2021/12/02 10:28:01;;;;;;;14.10;10.88;;;24.90;55.30;;;;;;701776;28;1086;-54
2021/12/02 10:28:22;;;;;;;12.25;10.95;;;26.00;53.70;;;;;;699560;28;63218;-52
2021/12/02 10:28:44;;;;;;;12.18;10.98;;;26.30;52.20;;;;;;701691;28;1031;-53
2021/12/02 10:29:11;;;;;;;12.63;11.43;;;26.70;50.60;;;;;;701767;28;1189;-55
2021/12/02 10:29:34;;;;;;;12.25;10.52;;;26.80;49.20;;;;;;699433;28;63293;-54
2021/12/02 10:29:55;;;;;;;11.80;10.75;;;27.20;48.20;;;;;;701682;28;1122;-54
2021/12/02 10:30:23;;;;;;;11.98;10.75;;;27.50;47.40;;;;;;701767;28;1185;-53
2021/12/02 10:30:48;;;;;;;12.55;11.23;;;27.60;46.10;;;;;;699558;28;62905;-55
2021/12/02 10:31:10;;;;;;;11.88;10.70;;;27.70;45.60;;;;;;700518;28;39952;-55
2021/12/02 10:31:32;;;;;;;11.85;10.65;;;27.80;45.00;;;;;;701445;28;1132;-55
2021/12/02 10:32:06;;;;;;;11.40;10.32;;;28.00;44.80;;;;;;701618;28;1178;-55
2021/12/02 10:32:30;;;;;;;11.85;10.52;;;28.20;44.10;;;;;;699555;28;62780;-55
2021/12/02 10:32:51;;;;;;;11.15;10.07;;;28.30;43.70;;;;;;701103;28;16165;-55
2021/12/02 10:33:14;;;;;;;12.57;10.07;;;27.60;42.80;;;;;;701619;28;1098;-54
2021/12/02 10:33:37;;;;;;;11.23;9.85;;;27.20;42.40;;;;;;701667;28;1126;-53
2021/12/02 10:34:03;;;;;;;10.80;9.82;;;26.60;43.40;;;;;;701144;28;16335;-54
2021/12/02 10:34:25;;;;;;;10.85;9.68;;;26.70;43.10;;;;;;699703;28;60490;-54
2021/12/02 10:34:49;;;;;;;10.65;9.57;;;26.70;43.10;;;;;;701600;28;1135;-53
2021/12/02 10:35:13;;;;;;;11.02;9.82;;;27.10;43.40;;;;;;701161;28;16355;-55
2021/12/02 10:35:42;;;;;;;10.70;9.70;;;27.20;43.00;;;;;;701633;28;1089;-55
2021/12/02 10:36:06;;;;;;;10.68;9.68;;;27.30;42.50;;;;;;699705;28;62810;-55
2021/12/02 10:36:31;;;;;;;10.90;9.77;;;27.30;42.40;;;;;;701640;28;1181;-54
2021/12/02 10:36:57;;;;;;;11.50;10.30;;;27.00;41.90;;;;;;700422;28;40228;-55
2021/12/02 10:37:20;;;;;;;11.13;10.02;;;27.10;42.60;;;;;;699576;28;64256;-53
2021/12/02 10:37:41;;;;;;;11.05;10.05;;;27.60;42.50;;;;;;701526;28;1736;-54
2021/12/02 10:38:03;;;;;;;11.32;10.32;;;28.10;42.10;;;;;;701787;28;1117;-57
2021/12/02 10:38:36;;;;;;;11.50;10.40;;;28.30;41.90;;;;;;701706;28;1074;-53
2021/12/02 10:38:59;;;;;;;11.35;10.35;;;28.80;41.60;;;;;;699694;28;63802;-55
2021/12/02 10:39:24;;;;;;;10.93;10.02;;;29.10;41.30;;;;;;701701;28;1023;-55
2021/12/02 10:39:57;;;;;;;11.68;10.43;;;29.20;40.80;;;;;;700530;28;40232;-55
2021/12/02 10:40:21;;;;;;;11.18;10.15;;;29.50;40.50;;;;;;699456;28;63989;-55
2021/12/02 10:40:57;;;;;;;12.20;10.20;;;29.50;40.10;;;;;;701238;28;12809;-54
2021/12/02 10:41:21;;;;;;;12.20;10.95;;;29.70;40.20;;;;;;699494;28;63622;-54
2021/12/02 10:41:44;;;;;;;15.10;11.23;;;29.60;39.90;;;;;;700882;28;20839;-54
2021/12/02 10:42:07;;;;;;;13.25;11.63;;;29.40;40.10;;;;;;701743;28;1008;-55
2021/12/02 10:42:30;;;;;;;15.55;12.13;;;29.40;40.10;;;;;;701653;28;1122;-53
2021/12/02 10:42:52;;;;;;;14.35;12.48;;;29.40;40.10;;;;;;701674;28;987;-55
2021/12/02 10:43:13;;;;;;;14.25;12.23;;;29.30;40.20;;;;;;701659;28;1146;-54
2021/12/02 10:43:34;;;;;;;15.82;11.80;;;29.20;40.50;;;;;;701758;28;1126;-55
2021/12/02 10:44:05;;;;;;;13.73;12.32;;;29.30;40.40;;;;;;701658;28;1046;-54
2021/12/02 10:44:31;;;;;;;14.25;12.88;;;29.30;39.70;;;;;;699370;28;67671;-53
2021/12/02 10:44:52;;;;;;;12.52;11.45;;;29.40;39.80;;;;;;700377;28;39573;-54
2021/12/02 10:45:19;;;;;;;12.82;11.63;;;29.30;39.40;;;;;;701669;28;1181;-55
2021/12/02 10:45:41;;;;;;;12.27;11.18;;;29.10;39.00;;;;;;699633;28;63971;-53
2021/12/02 10:46:16;;;;;;;11.93;10.82;;;29.10;39.50;;;;;;701712;28;1023;-55
2021/12/02 10:46:39;;;;;;;12.82;11.60;;;28.40;39.00;;;;;;699572;28;63535;-54
2021/12/02 10:47:05;;;;;;;13.15;11.93;;;28.40;39.40;;;;;;701654;28;1106;-54
2021/12/02 10:47:26;;;;;;;13.85;12.52;;;28.50;39.70;;;;;;699548;28;64579;-54
2021/12/02 10:47:48;;;;;;;13.73;12.23;;;28.50;39.60;;;;;;701690;28;1126;-54
2021/12/02 10:48:09;;;;;;;13.13;11.75;;;28.40;39.30;;;;;;697572;27;10074;-60
